Terminal Aerodrome Forecast
Issued by NWS Melbourne, FL

Home | Current Version | Previous Version | Text Only | Print | Product List | Glossary On
Versions: 1 2 3 4 5 6 7 8 9 10 11 12 13 14
000
FTUS42 KMLB 161415 AAA
TAFDAB
TAF AMD
KDAB 161415Z 1614/1712 36006KT P6SM BKN030 BKN080
     FM161700 03007KT P6SM SCT035 BKN090
     FM170000 VRB03KT P6SM FEW040 SCT100 BKN250=

USA.gov is the U.S. government's official web portal to all federal, state and local government web resources and services.